createdAt,value
2017-10-04T00:00:57.784Z,0.00
2017-10-04T00:01:57.777Z,0.00
2017-10-04T00:03:18.767Z,0.00
2017-10-04T00:03:57.749Z,0.00
2017-10-04T00:04:58.566Z,0.00
2017-10-04T00:05:57.679Z,0.00
2017-10-04T00:06:57.718Z,0.00
2017-10-04T00:07:57.627Z,0.00
2017-10-04T00:09:18.639Z,0.00
2017-10-04T00:09:57.602Z,0.00
2017-10-04T00:10:57.594Z,0.00
2017-10-04T00:11:57.590Z,0.00
2017-10-04T00:12:57.541Z,0.00
2017-10-04T00:13:57.517Z,0.00
2017-10-04T00:15:18.511Z,0.00
2017-10-04T00:15:57.497Z,0.00
2017-10-04T00:16:57.451Z,0.00
2017-10-04T00:17:57.435Z,0.00
2017-10-04T00:18:57.439Z,0.00
2017-10-04T00:19:57.370Z,0.00
2017-10-04T00:21:18.359Z,0.00
2017-10-04T00:21:57.344Z,0.00
2017-10-04T00:22:57.334Z,0.00
2017-10-04T00:23:57.310Z,0.00
2017-10-04T00:24:57.308Z,0.00
2017-10-04T00:25:57.245Z,0.00
2017-10-04T00:27:18.242Z,0.00
2017-10-04T00:27:57.227Z,0.00
2017-10-04T00:28:57.217Z,0.00
2017-10-04T00:29:57.170Z,0.00
2017-10-04T00:30:57.171Z,0.00
2017-10-04T00:31:57.143Z,0.00
2017-10-04T00:33:18.107Z,0.00
2017-10-04T00:33:57.096Z,0.00
2017-10-04T00:34:57.084Z,0.00
2017-10-04T00:35:57.071Z,0.00
2017-10-04T00:36:57.020Z,0.00
2017-10-04T00:37:57.015Z,0.00
2017-10-04T00:39:18.018Z,0.00
2017-10-04T00:39:56.990Z,0.00
2017-10-04T00:40:56.967Z,0.00
2017-10-04T00:41:56.905Z,0.00
2017-10-04T00:42:56.902Z,0.00
2017-10-04T00:43:56.865Z,0.00
2017-10-04T00:45:17.851Z,0.00
2017-10-04T00:45:56.836Z,0.00
2017-10-04T00:46:56.805Z,0.00
2017-10-04T00:47:56.780Z,0.00
2017-10-04T00:48:56.755Z,0.00
2017-10-04T00:49:56.753Z,0.00
2017-10-04T00:51:17.761Z,0.00
2017-10-04T00:51:56.723Z,0.00
2017-10-04T00:52:56.710Z,0.00
2017-10-04T00:53:56.694Z,0.00
2017-10-04T00:54:56.651Z,0.00
2017-10-04T00:55:56.638Z,0.00
2017-10-04T00:57:17.615Z,0.00
2017-10-04T00:57:56.584Z,0.00
2017-10-04T00:58:56.568Z,0.00
2017-10-04T00:59:56.539Z,0.00
2017-10-04T01:00:56.513Z,0.00
2017-10-04T01:01:56.515Z,0.00
2017-10-04T01:03:17.485Z,0.00
2017-10-04T01:03:56.449Z,0.00
2017-10-04T01:04:56.427Z,0.00
2017-10-04T01:05:56.400Z,0.00
2017-10-04T01:06:56.369Z,0.00
2017-10-04T01:07:56.352Z,0.00
2017-10-04T01:09:17.363Z,0.00
2017-10-04T01:09:56.320Z,0.00
2017-10-04T01:10:56.305Z,0.00
2017-10-04T01:11:56.276Z,0.00
2017-10-04T01:12:56.253Z,0.00
2017-10-04T01:13:56.280Z,0.00
2017-10-04T01:15:17.224Z,0.00
2017-10-04T01:15:56.225Z,0.00
2017-10-04T01:16:56.189Z,0.00
2017-10-04T01:17:56.170Z,0.00
2017-10-04T01:18:56.144Z,0.00
2017-10-04T01:19:56.134Z,0.00
2017-10-04T01:21:17.109Z,0.00
2017-10-04T01:21:56.065Z,0.00
2017-10-04T01:22:56.050Z,0.00
2017-10-04T01:23:56.016Z,0.00
2017-10-04T01:24:56.011Z,0.00
2017-10-04T01:25:56.003Z,0.00
2017-10-04T01:27:16.980Z,0.00
2017-10-04T01:27:55.935Z,0.00
2017-10-04T01:28:55.947Z,0.00
2017-10-04T01:29:55.895Z,0.00
2017-10-04T01:30:55.878Z,0.00
2017-10-04T01:31:55.890Z,0.00
2017-10-04T01:33:16.826Z,0.00
2017-10-04T01:33:55.823Z,0.00
2017-10-04T01:34:55.784Z,0.00
2017-10-04T01:35:55.778Z,0.00
2017-10-04T01:36:55.773Z,0.00
2017-10-04T01:37:55.739Z,0.00
2017-10-04T01:39:16.720Z,0.00
2017-10-04T01:39:55.687Z,0.00
2017-10-04T01:40:55.675Z,0.00
2017-10-04T01:41:55.684Z,0.00
2017-10-04T01:42:55.650Z,0.00
2017-10-04T01:43:55.632Z,0.00
2017-10-04T01:45:16.583Z,0.00
2017-10-04T01:45:55.554Z,0.00
2017-10-04T01:46:55.521Z,0.00
2017-10-04T01:47:55.515Z,0.00
2017-10-04T01:48:55.508Z,0.00
2017-10-04T01:49:55.492Z,0.00
2017-10-04T01:51:16.470Z,0.00
2017-10-04T01:51:55.441Z,0.00
2017-10-04T01:52:55.407Z,0.00
2017-10-04T01:53:55.362Z,0.00
2017-10-04T01:54:55.388Z,0.00
2017-10-04T01:55:55.333Z,0.00
2017-10-04T01:57:16.352Z,0.00
2017-10-04T01:57:55.317Z,0.00
2017-10-04T01:58:55.269Z,0.00
2017-10-04T01:59:55.275Z,0.00
2017-10-04T02:00:55.277Z,0.00
2017-10-04T02:01:55.246Z,0.00
2017-10-04T02:03:16.225Z,0.00
2017-10-04T02:03:55.170Z,0.00
2017-10-04T02:04:55.152Z,0.00
2017-10-04T02:05:55.129Z,0.00
2017-10-04T02:06:55.100Z,0.00
2017-10-04T02:07:55.109Z,0.00
2017-10-04T02:09:16.068Z,0.00
2017-10-04T02:09:55.057Z,0.00
2017-10-04T02:10:55.009Z,0.00
2017-10-04T02:11:54.992Z,0.00
2017-10-04T02:12:54.950Z,0.00
2017-10-04T02:13:54.969Z,0.00
2017-10-04T02:15:15.939Z,0.00
2017-10-04T02:15:54.910Z,0.00
2017-10-04T02:16:54.903Z,0.00
2017-10-04T02:17:54.863Z,0.00
2017-10-04T02:18:54.844Z,0.00
2017-10-04T02:19:54.825Z,0.00
2017-10-04T02:21:15.817Z,0.00
2017-10-04T02:21:54.782Z,0.00
2017-10-04T02:22:54.761Z,0.00
2017-10-04T02:23:54.757Z,0.00
2017-10-04T02:24:54.734Z,0.00
2017-10-04T02:25:54.711Z,0.00
2017-10-04T02:27:15.670Z,0.00
2017-10-04T02:27:54.659Z,0.00
2017-10-04T02:28:54.648Z,0.00
2017-10-04T02:29:54.632Z,0.00
2017-10-04T02:30:54.586Z,0.00
2017-10-04T02:31:54.563Z,0.00
2017-10-04T02:33:15.558Z,0.00
2017-10-04T02:33:54.524Z,0.00
2017-10-04T02:34:54.509Z,0.00
2017-10-04T02:35:54.489Z,0.00
2017-10-04T02:36:54.444Z,0.00
2017-10-04T02:37:54.443Z,0.00
2017-10-04T02:39:15.416Z,0.00
2017-10-04T02:39:54.397Z,0.00
2017-10-04T02:40:54.367Z,0.00
2017-10-04T02:41:54.374Z,0.00
2017-10-04T02:42:54.339Z,0.00
2017-10-04T02:43:54.346Z,0.00
2017-10-04T02:45:15.296Z,0.00
2017-10-04T02:45:54.262Z,0.00
2017-10-04T02:46:54.241Z,0.00
2017-10-04T02:47:54.258Z,0.00
2017-10-04T02:48:54.198Z,0.00
2017-10-04T02:49:54.197Z,0.00
2017-10-04T02:51:15.138Z,0.00
2017-10-04T02:51:54.138Z,0.00
2017-10-04T02:52:54.129Z,0.00
2017-10-04T02:53:54.093Z,0.00
2017-10-04T02:54:54.064Z,0.00
2017-10-04T02:55:54.067Z,0.00
2017-10-04T02:57:15.047Z,0.00
2017-10-04T02:57:54.002Z,0.00
2017-10-04T02:58:53.989Z,0.00
2017-10-04T02:59:53.967Z,0.00
2017-10-04T03:00:53.957Z,0.00
2017-10-04T03:01:53.914Z,0.00
2017-10-04T03:03:14.904Z,0.00
2017-10-04T03:03:53.886Z,0.00
2017-10-04T03:04:53.854Z,0.00
2017-10-04T03:05:53.833Z,0.00
2017-10-04T03:06:53.820Z,0.00
2017-10-04T03:07:53.802Z,0.00
2017-10-04T03:09:14.784Z,0.00
2017-10-04T03:09:53.759Z,0.00
2017-10-04T03:10:53.735Z,0.00
2017-10-04T03:11:53.731Z,0.00
2017-10-04T03:12:53.692Z,0.00
2017-10-04T03:13:53.673Z,0.00
2017-10-04T03:15:14.677Z,0.00
2017-10-04T03:15:53.627Z,0.00
2017-10-04T03:16:53.603Z,0.00
2017-10-04T03:17:53.608Z,0.00
2017-10-04T03:18:53.542Z,0.00
2017-10-04T03:19:53.535Z,0.00
2017-10-04T03:21:14.547Z,0.00
2017-10-04T03:21:53.499Z,0.00
2017-10-04T03:22:53.488Z,0.00
2017-10-04T03:23:53.448Z,0.00
2017-10-04T03:24:53.418Z,0.00
2017-10-04T03:25:53.412Z,0.00
2017-10-04T03:27:14.404Z,0.00
2017-10-04T03:27:53.366Z,0.00
2017-10-04T03:28:53.356Z,0.00
2017-10-04T03:29:53.329Z,0.00
2017-10-04T03:30:53.317Z,0.00
2017-10-04T03:31:53.308Z,0.00
2017-10-04T03:33:14.260Z,0.00
2017-10-04T03:33:53.225Z,0.00
2017-10-04T03:34:53.245Z,0.00
2017-10-04T03:35:53.232Z,0.00
2017-10-04T03:36:53.190Z,0.00
2017-10-04T03:37:53.184Z,0.00
2017-10-04T03:39:14.149Z,0.00
2017-10-04T03:39:53.104Z,0.00
2017-10-04T03:40:53.109Z,0.00
2017-10-04T03:41:53.068Z,0.00
2017-10-04T03:42:53.068Z,0.00
2017-10-04T03:43:53.050Z,0.00
2017-10-04T03:45:13.998Z,0.00
2017-10-04T03:45:52.981Z,0.00
2017-10-04T03:46:52.981Z,0.00
2017-10-04T03:47:52.955Z,0.00
2017-10-04T03:48:52.921Z,0.00
2017-10-04T03:49:52.898Z,0.00
2017-10-04T03:51:14.283Z,0.00
2017-10-04T03:51:52.845Z,0.00
2017-10-04T03:52:52.853Z,0.00
2017-10-04T03:53:52.843Z,0.00
2017-10-04T03:54:52.824Z,0.00
2017-10-04T03:55:52.841Z,0.00
2017-10-04T03:57:14.278Z,0.00
2017-10-04T03:57:52.774Z,0.00
2017-10-04T03:58:54.727Z,0.00
2017-10-04T03:59:52.696Z,0.00
2017-10-04T04:00:52.693Z,0.00
2017-10-04T04:01:52.655Z,0.00
2017-10-04T04:03:13.634Z,0.00
2017-10-04T04:03:52.653Z,0.00
2017-10-04T04:04:52.588Z,0.00
2017-10-04T04:05:52.586Z,0.00
2017-10-04T04:06:52.540Z,0.00
2017-10-04T04:07:52.536Z,0.00
2017-10-04T04:09:13.519Z,0.00
2017-10-04T04:09:52.474Z,0.00
2017-10-04T04:10:52.474Z,0.00
2017-10-04T04:11:52.461Z,0.00
2017-10-04T04:12:52.475Z,0.00
2017-10-04T04:13:52.411Z,0.00
2017-10-04T04:15:13.379Z,0.00
2017-10-04T04:15:52.343Z,0.00
2017-10-04T04:16:52.321Z,0.00
2017-10-04T04:17:52.317Z,0.00
2017-10-04T04:18:52.312Z,0.00
2017-10-04T04:19:52.300Z,0.00
2017-10-04T04:21:13.266Z,0.00
2017-10-04T04:21:52.244Z,0.00
2017-10-04T04:22:52.184Z,0.00
2017-10-04T04:23:52.187Z,0.00
2017-10-04T04:24:52.309Z,0.00
2017-10-04T04:25:52.225Z,0.00
2017-10-04T04:27:13.298Z,0.00
2017-10-04T04:27:52.229Z,0.00
2017-10-04T04:28:52.158Z,0.00
2017-10-04T04:29:52.264Z,0.00
2017-10-04T04:30:52.224Z,0.00
2017-10-04T04:31:52.095Z,0.00
2017-10-04T04:33:13.187Z,0.00
2017-10-04T04:33:52.028Z,0.00
2017-10-04T04:34:52.021Z,0.00
2017-10-04T04:35:51.984Z,0.00
2017-10-04T04:36:51.954Z,0.00
2017-10-04T04:37:51.948Z,0.00
2017-10-04T04:39:12.960Z,0.00
2017-10-04T04:39:51.920Z,0.00
2017-10-04T04:40:51.886Z,0.00
2017-10-04T04:41:51.800Z,0.00
2017-10-04T04:42:51.829Z,0.00
2017-10-04T04:43:51.781Z,0.00
2017-10-04T04:45:12.749Z,0.00
2017-10-04T04:45:51.742Z,0.00
2017-10-04T04:46:51.686Z,0.00
2017-10-04T04:47:51.727Z,0.00
2017-10-04T04:48:51.684Z,0.00
2017-10-04T04:49:51.655Z,0.00
2017-10-04T04:51:12.616Z,0.00
2017-10-04T04:51:51.607Z,0.00
2017-10-04T04:52:51.600Z,0.00
2017-10-04T04:53:51.570Z,0.00
2017-10-04T04:54:51.538Z,0.00
2017-10-04T04:55:51.552Z,0.00
2017-10-04T04:57:12.544Z,0.00
2017-10-04T04:57:51.592Z,0.00
2017-10-04T04:58:51.470Z,0.00
2017-10-04T04:59:51.444Z,0.00
2017-10-04T05:00:51.415Z,0.00
2017-10-04T05:01:51.398Z,0.00
2017-10-04T05:03:12.400Z,0.00
2017-10-04T05:03:51.362Z,0.00
2017-10-04T05:04:51.319Z,0.00
2017-10-04T05:05:51.329Z,0.00
2017-10-04T05:06:51.369Z,0.00
2017-10-04T05:07:51.266Z,0.00
2017-10-04T05:09:12.264Z,0.00
2017-10-04T05:09:51.395Z,0.00
2017-10-04T05:10:51.514Z,0.00
2017-10-04T05:11:51.171Z,0.00
2017-10-04T05:12:51.194Z,0.00
2017-10-04T05:13:51.136Z,0.00
2017-10-04T05:15:12.097Z,0.00
2017-10-04T05:15:51.089Z,0.00
2017-10-04T05:16:51.139Z,0.00
2017-10-04T05:17:51.082Z,0.00
2017-10-04T05:18:51.057Z,0.00
2017-10-04T05:19:51.058Z,0.00
2017-10-04T05:21:11.999Z,0.00
2017-10-04T05:21:50.997Z,0.00
2017-10-04T05:22:50.935Z,5.63
2017-10-04T05:23:50.950Z,5.63
2017-10-04T05:24:50.892Z,5.63
2017-10-04T05:25:50.887Z,5.63
2017-10-04T05:27:12.024Z,5.63
2017-10-04T05:27:50.875Z,5.63
2017-10-04T05:28:51.758Z,5.63
2017-10-04T05:29:50.844Z,5.63
2017-10-04T05:30:50.800Z,5.63
2017-10-04T05:31:50.764Z,5.63
2017-10-04T05:33:11.833Z,5.63
2017-10-04T05:33:50.804Z,11.25
2017-10-04T05:34:50.798Z,11.25
2017-10-04T05:35:50.724Z,11.25
2017-10-04T05:36:50.842Z,16.88
2017-10-04T05:37:50.719Z,16.88
2017-10-04T05:39:11.853Z,16.88
2017-10-04T05:39:51.969Z,22.50
2017-10-04T05:40:50.591Z,22.50
2017-10-04T05:41:50.555Z,22.50
2017-10-04T05:42:50.552Z,28.13
2017-10-04T05:43:50.568Z,28.13
2017-10-04T05:45:11.506Z,33.75
2017-10-04T05:45:50.491Z,33.75
2017-10-04T05:46:50.460Z,39.38
2017-10-04T05:47:50.426Z,39.38
2017-10-04T05:48:50.432Z,39.38
2017-10-04T05:49:50.400Z,45.00
2017-10-04T05:51:11.351Z,45.00
2017-10-04T05:51:50.345Z,45.00
2017-10-04T05:52:50.322Z,50.63
2017-10-04T05:53:50.272Z,50.63
2017-10-04T05:54:50.260Z,50.63
2017-10-04T05:55:50.266Z,56.25
2017-10-04T05:57:11.254Z,56.25
2017-10-04T05:57:50.246Z,61.88
2017-10-04T05:58:50.183Z,61.88
2017-10-04T05:59:50.202Z,67.50
2017-10-04T06:00:50.154Z,67.50
2017-10-04T06:01:50.177Z,73.13
2017-10-04T06:03:11.103Z,73.13
2017-10-04T06:03:50.062Z,78.75
2017-10-04T06:04:50.054Z,84.38
2017-10-04T06:05:50.042Z,90.00
2017-10-04T06:06:50.051Z,95.63
2017-10-04T06:07:50.023Z,101.25
2017-10-04T06:09:10.987Z,106.88
2017-10-04T06:09:49.980Z,112.50
2017-10-04T06:10:49.926Z,112.50
2017-10-04T06:11:49.968Z,118.13
2017-10-04T06:12:49.863Z,118.13
2017-10-04T06:13:49.892Z,129.38
2017-10-04T06:15:10.858Z,123.75
2017-10-04T06:15:49.842Z,129.38
2017-10-04T06:16:49.820Z,129.38
2017-10-04T06:17:49.798Z,135.00
2017-10-04T06:18:49.843Z,135.00
2017-10-04T06:19:49.768Z,140.63
2017-10-04T06:21:10.797Z,140.63
2017-10-04T06:21:49.708Z,140.63
2017-10-04T06:22:49.695Z,146.25
2017-10-04T06:23:49.709Z,146.25
2017-10-04T06:24:49.692Z,146.25
2017-10-04T06:25:49.616Z,146.25
2017-10-04T06:27:10.582Z,146.25
2017-10-04T06:27:49.573Z,140.63
2017-10-04T06:28:49.578Z,135.00
2017-10-04T06:29:49.566Z,135.00
2017-10-04T06:30:49.537Z,129.38
2017-10-04T06:31:49.542Z,129.38
2017-10-04T06:33:10.465Z,123.75
2017-10-04T06:33:49.451Z,118.13
2017-10-04T06:34:49.415Z,118.13
2017-10-04T06:35:49.414Z,118.13
2017-10-04T06:36:49.395Z,118.13
2017-10-04T06:37:49.401Z,123.75
2017-10-04T06:39:10.366Z,129.38
2017-10-04T06:39:49.318Z,135.00
2017-10-04T06:40:49.306Z,146.25
2017-10-04T06:41:49.275Z,163.13
2017-10-04T06:42:49.267Z,196.88
2017-10-04T06:43:49.231Z,213.75
2017-10-04T06:45:10.229Z,236.25
2017-10-04T06:45:49.198Z,236.25
2017-10-04T06:46:49.189Z,241.88
2017-10-04T06:47:49.209Z,247.50
2017-10-04T06:48:49.113Z,258.75
2017-10-04T06:49:49.167Z,253.13
2017-10-04T06:51:10.110Z,258.75
2017-10-04T06:51:49.109Z,275.63
2017-10-04T06:52:49.066Z,264.38
2017-10-04T06:53:49.041Z,253.13
2017-10-04T06:54:49.009Z,247.50
2017-10-04T06:55:49.003Z,258.75
2017-10-04T06:57:09.998Z,247.50
2017-10-04T06:57:48.966Z,247.50
2017-10-04T06:58:48.924Z,253.13
2017-10-04T06:59:48.918Z,275.63
2017-10-04T07:00:48.919Z,298.13
2017-10-04T07:01:48.884Z,303.75
2017-10-04T07:03:09.860Z,292.50
2017-10-04T07:03:48.865Z,258.75
2017-10-04T07:04:48.819Z,236.25
2017-10-04T07:05:48.780Z,241.88
2017-10-04T07:06:48.770Z,241.88
2017-10-04T07:07:48.758Z,241.88
2017-10-04T07:09:09.738Z,241.88
2017-10-04T07:09:48.715Z,225.00
2017-10-04T07:10:48.691Z,219.38
2017-10-04T07:11:48.644Z,230.63
2017-10-04T07:12:48.656Z,258.75
2017-10-04T07:13:48.650Z,281.25
2017-10-04T07:15:09.588Z,275.63
2017-10-04T07:15:48.592Z,286.88
2017-10-04T07:16:48.546Z,264.38
2017-10-04T07:17:48.526Z,270.00
2017-10-04T07:18:48.604Z,303.75
2017-10-04T07:19:48.505Z,320.63
2017-10-04T07:21:09.477Z,348.75
2017-10-04T07:21:48.448Z,360.00
2017-10-04T07:22:48.443Z,360.00
2017-10-04T07:23:48.396Z,388.13
2017-10-04T07:24:48.400Z,421.88
2017-10-04T07:25:48.398Z,450.00
2017-10-04T07:27:09.359Z,444.38
2017-10-04T07:27:48.392Z,511.88
2017-10-04T07:28:48.342Z,495.00
2017-10-04T07:29:48.290Z,405.00
2017-10-04T07:30:48.282Z,365.63
2017-10-04T07:31:48.292Z,337.50
2017-10-04T07:33:09.331Z,326.25
2017-10-04T07:33:48.222Z,331.88
2017-10-04T07:34:48.217Z,348.75
2017-10-04T07:35:48.210Z,433.13
2017-10-04T07:36:48.173Z,528.75
2017-10-04T07:37:48.180Z,551.25
2017-10-04T07:39:09.133Z,517.50
2017-10-04T07:39:48.101Z,489.38
2017-10-04T07:40:48.136Z,489.38
2017-10-04T07:41:48.065Z,483.75
2017-10-04T07:42:48.077Z,421.88
2017-10-04T07:43:48.089Z,360.00
2017-10-04T07:45:09.031Z,343.13
2017-10-04T07:45:48.006Z,360.00
2017-10-04T07:46:47.983Z,427.50
2017-10-04T07:47:49.822Z,410.63
2017-10-04T07:48:47.966Z,382.50
2017-10-04T07:49:48.051Z,382.50
2017-10-04T07:51:08.907Z,393.75
2017-10-04T07:51:47.958Z,421.88
2017-10-04T07:52:47.900Z,365.63
2017-10-04T07:53:47.891Z,348.75
2017-10-04T07:54:47.836Z,365.63
2017-10-04T07:55:47.806Z,320.63
2017-10-04T07:57:08.837Z,208.13
2017-10-04T07:57:47.782Z,129.38
2017-10-04T07:58:47.820Z,118.13
2017-10-04T07:59:47.729Z,118.13
2017-10-04T08:00:47.761Z,146.25
2017-10-04T08:01:47.729Z,191.25
2017-10-04T08:03:08.704Z,219.38
2017-10-04T08:03:47.669Z,258.75
2017-10-04T08:04:47.653Z,298.13
2017-10-04T08:05:47.650Z,337.50
2017-10-04T08:06:47.611Z,365.63
2017-10-04T08:07:47.579Z,309.38
2017-10-04T08:09:08.815Z,230.63
2017-10-04T08:09:47.566Z,230.63
2017-10-04T08:10:47.682Z,241.88
2017-10-04T08:11:47.741Z,258.75
2017-10-04T08:12:47.582Z,298.13
2017-10-04T08:13:47.854Z,303.75
2017-10-04T08:15:08.658Z,326.25
2017-10-04T08:15:47.775Z,354.38
2017-10-04T08:16:47.418Z,376.88
2017-10-04T08:17:47.417Z,399.38
2017-10-04T08:18:47.394Z,382.50
2017-10-04T08:19:47.387Z,326.25
2017-10-04T08:21:08.359Z,298.13
2017-10-04T08:21:47.335Z,360.00
2017-10-04T08:22:47.322Z,354.38
2017-10-04T08:23:47.296Z,382.50
2017-10-04T08:24:47.279Z,427.50
2017-10-04T08:25:47.247Z,365.63
2017-10-04T08:27:08.234Z,354.38
2017-10-04T08:27:47.242Z,354.38
2017-10-04T08:28:47.262Z,326.25
2017-10-04T08:29:47.198Z,331.88
2017-10-04T08:30:47.799Z,309.38
2017-10-04T08:31:47.121Z,348.75
2017-10-04T08:33:08.140Z,376.88
2017-10-04T08:33:47.084Z,331.88
2017-10-04T08:34:47.083Z,286.88
2017-10-04T08:35:47.081Z,360.00
2017-10-04T08:36:47.160Z,382.50
2017-10-04T08:37:47.156Z,348.75
2017-10-04T08:39:08.028Z,382.50
2017-10-04T08:39:46.998Z,427.50
2017-10-04T08:40:46.984Z,461.25
2017-10-04T08:41:46.966Z,405.00
2017-10-04T08:42:46.957Z,365.63
2017-10-04T08:43:46.941Z,444.38
2017-10-04T08:45:07.924Z,523.13
2017-10-04T08:45:46.872Z,590.63
2017-10-04T08:46:46.939Z,534.38
2017-10-04T08:47:46.847Z,551.25
2017-10-04T08:48:46.844Z,568.13
2017-10-04T08:49:46.833Z,393.75
2017-10-04T08:51:07.817Z,405.00
2017-10-04T08:51:46.771Z,382.50
2017-10-04T08:52:46.759Z,450.00
2017-10-04T08:53:46.729Z,545.63
2017-10-04T08:54:46.728Z,776.25
2017-10-04T08:55:46.696Z,624.38
2017-10-04T08:57:07.686Z,703.13
2017-10-04T08:57:46.699Z,618.75
2017-10-04T08:58:46.668Z,736.88
2017-10-04T08:59:46.625Z,686.25
2017-10-04T09:00:46.618Z,568.13
2017-10-04T09:01:46.633Z,466.88
2017-10-04T09:03:07.586Z,551.25
2017-10-04T09:03:46.556Z,680.63
2017-10-04T09:04:46.565Z,956.25
2017-10-04T09:05:46.549Z,1125.00
2017-10-04T09:06:46.628Z,1175.63
2017-10-04T09:07:46.481Z,883.13
2017-10-04T09:09:07.459Z,860.63
2017-10-04T09:09:46.459Z,2486.25
2017-10-04T09:10:46.418Z,2160.00
2017-10-04T09:11:46.414Z,933.75
2017-10-04T09:12:46.408Z,2188.13
2017-10-04T09:13:46.413Z,2587.50
2017-10-04T09:15:07.372Z,781.88
2017-10-04T09:15:46.357Z,500.63
2017-10-04T09:16:46.335Z,573.75
2017-10-04T09:17:46.310Z,573.75
2017-10-04T09:18:46.305Z,663.75
2017-10-04T09:19:46.305Z,652.50
2017-10-04T09:21:07.299Z,641.25
2017-10-04T09:21:46.304Z,669.38
2017-10-04T09:22:46.227Z,798.75
2017-10-04T09:23:46.236Z,950.63
2017-10-04T09:24:46.249Z,2137.50
2017-10-04T09:25:46.191Z,1035.00
2017-10-04T09:27:07.176Z,916.88
2017-10-04T09:27:46.174Z,793.13
2017-10-04T09:28:46.144Z,950.63
2017-10-04T09:29:46.176Z,1400.63
2017-10-04T09:30:46.117Z,1023.75
2017-10-04T09:31:46.100Z,826.88
2017-10-04T09:33:07.110Z,765.00
2017-10-04T09:33:46.081Z,697.50
2017-10-04T09:34:46.059Z,826.88
2017-10-04T09:35:46.060Z,916.88
2017-10-04T09:36:46.094Z,1445.63
2017-10-04T09:37:46.041Z,1181.25
2017-10-04T09:39:07.005Z,1288.13
2017-10-04T09:39:45.992Z,1282.50
2017-10-04T09:40:45.972Z,1023.75
2017-10-04T09:41:46.005Z,810.00
2017-10-04T09:42:45.937Z,1203.75
2017-10-04T09:43:45.929Z,1051.88
2017-10-04T09:45:06.900Z,1018.13
2017-10-04T09:45:45.917Z,1192.50
2017-10-04T09:46:45.883Z,556.88
2017-10-04T09:47:45.850Z,455.63
2017-10-04T09:48:45.910Z,410.63
2017-10-04T09:49:45.859Z,461.25
2017-10-04T09:51:06.842Z,410.63
2017-10-04T09:51:45.828Z,376.88
2017-10-04T09:52:45.799Z,399.38
2017-10-04T09:53:45.782Z,410.63
2017-10-04T09:54:45.800Z,399.38
2017-10-04T09:55:45.736Z,303.75
2017-10-04T09:57:06.729Z,275.63
2017-10-04T09:57:45.758Z,315.00
2017-10-04T09:58:45.698Z,376.88
2017-10-04T09:59:45.720Z,309.38
2017-10-04T10:00:45.706Z,348.75
2017-10-04T10:01:45.668Z,534.38
2017-10-04T10:03:06.659Z,585.00
2017-10-04T10:03:45.635Z,697.50
2017-10-04T10:04:45.649Z,922.50
2017-10-04T10:05:45.590Z,1074.38
2017-10-04T10:06:45.587Z,1012.50
2017-10-04T10:07:45.601Z,753.75
2017-10-04T10:09:06.572Z,607.50
2017-10-04T10:09:45.537Z,461.25
2017-10-04T10:10:46.371Z,534.38
2017-10-04T10:11:45.549Z,720.00
2017-10-04T10:12:45.959Z,798.75
2017-10-04T10:13:45.464Z,3150.00
2017-10-04T10:15:06.532Z,933.75
2017-10-04T10:15:46.190Z,1175.63
2017-10-04T10:16:45.462Z,1856.25
2017-10-04T10:17:45.604Z,770.63
2017-10-04T10:18:45.550Z,596.25
2017-10-04T10:19:45.406Z,545.63
2017-10-04T10:21:06.386Z,354.38
2017-10-04T10:21:45.394Z,365.63
2017-10-04T10:22:45.376Z,562.50
2017-10-04T10:23:45.350Z,500.63
2017-10-04T10:24:45.700Z,343.13
2017-10-04T10:25:45.300Z,337.50
2017-10-04T10:27:06.296Z,506.25
2017-10-04T10:27:45.248Z,607.50
2017-10-04T10:28:45.240Z,483.75
2017-10-04T10:29:45.198Z,416.25
2017-10-04T10:30:45.186Z,343.13
2017-10-04T10:31:45.218Z,360.00
2017-10-04T10:33:06.214Z,388.13
2017-10-04T10:33:45.192Z,371.25
2017-10-04T10:34:45.589Z,286.88
2017-10-04T10:35:45.125Z,230.63
2017-10-04T10:36:45.087Z,275.63
2017-10-04T10:37:45.077Z,371.25
2017-10-04T10:39:06.091Z,388.13
2017-10-04T10:39:45.083Z,337.50
2017-10-04T10:40:45.121Z,270.00
2017-10-04T10:41:45.032Z,343.13
2017-10-04T10:42:45.030Z,534.38
2017-10-04T10:43:44.984Z,630.00
2017-10-04T10:45:05.996Z,562.50
2017-10-04T10:45:44.953Z,495.00
2017-10-04T10:46:44.922Z,444.38
2017-10-04T10:47:44.944Z,388.13
2017-10-04T10:48:44.928Z,382.50
2017-10-04T10:49:44.894Z,388.13
2017-10-04T10:51:05.866Z,326.25
2017-10-04T10:51:44.870Z,360.00
2017-10-04T10:52:44.854Z,511.88
2017-10-04T10:53:44.857Z,601.88
2017-10-04T10:54:44.793Z,630.00
2017-10-04T10:55:44.788Z,680.63
2017-10-04T10:57:05.771Z,489.38
2017-10-04T10:57:44.746Z,466.88
2017-10-04T10:58:44.718Z,472.50
2017-10-04T10:59:44.727Z,416.25
2017-10-04T11:00:44.676Z,315.00
2017-10-04T11:01:44.682Z,292.50
2017-10-04T11:03:05.649Z,298.13
2017-10-04T11:03:44.651Z,275.63
2017-10-04T11:04:44.623Z,270.00
2017-10-04T11:05:44.591Z,320.63
2017-10-04T11:06:44.571Z,315.00
2017-10-04T11:07:44.558Z,320.63
2017-10-04T11:09:05.536Z,354.38
2017-10-04T11:09:44.563Z,483.75
2017-10-04T11:10:44.522Z,663.75
2017-10-04T11:11:44.515Z,742.50
2017-10-04T11:12:44.473Z,742.50
2017-10-04T11:13:44.449Z,658.13
2017-10-04T11:15:05.465Z,528.75
2017-10-04T11:15:44.415Z,562.50
2017-10-04T11:16:44.410Z,680.63
2017-10-04T11:17:44.400Z,585.00
2017-10-04T11:18:44.365Z,635.63
2017-10-04T11:19:44.348Z,669.38
2017-10-04T11:21:05.325Z,703.13
2017-10-04T11:21:44.294Z,781.88
2017-10-04T11:22:44.285Z,748.13
2017-10-04T11:23:44.381Z,725.63
2017-10-04T11:24:44.250Z,765.00
2017-10-04T11:25:44.242Z,686.25
2017-10-04T11:27:05.217Z,714.38
2017-10-04T11:27:44.247Z,804.38
2017-10-04T11:28:44.176Z,804.38
2017-10-04T11:29:44.181Z,1231.88
2017-10-04T11:30:44.153Z,545.63
2017-10-04T11:31:44.159Z,528.75
2017-10-04T11:33:05.123Z,528.75
2017-10-04T11:33:44.099Z,551.25
2017-10-04T11:34:44.097Z,506.25
2017-10-04T11:35:44.075Z,495.00
2017-10-04T11:36:44.103Z,562.50
2017-10-04T11:37:44.059Z,556.88
2017-10-04T11:39:05.069Z,607.50
2017-10-04T11:39:44.040Z,697.50
2017-10-04T11:40:44.025Z,1018.13
2017-10-04T11:41:44.011Z,1108.13
2017-10-04T11:42:43.956Z,905.63
2017-10-04T11:43:43.947Z,804.38
2017-10-04T11:45:04.947Z,798.75
2017-10-04T11:45:43.935Z,675.00
2017-10-04T11:46:43.905Z,573.75
2017-10-04T11:47:43.925Z,438.75
2017-10-04T11:48:43.866Z,495.00
2017-10-04T11:49:43.846Z,613.13
2017-10-04T11:51:04.850Z,607.50
2017-10-04T11:51:43.802Z,483.75
2017-10-04T11:52:43.792Z,360.00
2017-10-04T11:53:43.775Z,331.88
2017-10-04T11:54:43.752Z,450.00
2017-10-04T11:55:43.738Z,495.00
2017-10-04T11:57:04.739Z,495.00
2017-10-04T11:57:43.785Z,528.75
2017-10-04T11:58:43.708Z,511.88
2017-10-04T11:59:43.692Z,506.25
2017-10-04T12:00:43.659Z,534.38
2017-10-04T12:01:43.754Z,691.88
2017-10-04T12:03:04.638Z,765.00
2017-10-04T12:03:43.611Z,1158.75
2017-10-04T12:04:43.604Z,1080.00
2017-10-04T12:05:43.567Z,1023.75
2017-10-04T12:06:43.602Z,1805.63
2017-10-04T12:07:43.557Z,1063.13
2017-10-04T12:09:04.543Z,2210.63
2017-10-04T12:09:43.518Z,2064.38
2017-10-04T12:10:43.493Z,832.50
2017-10-04T12:11:43.483Z,787.50
2017-10-04T12:12:43.465Z,781.88
2017-10-04T12:13:43.452Z,753.75
2017-10-04T12:15:04.444Z,798.75
2017-10-04T12:15:43.460Z,911.25
2017-10-04T12:16:43.408Z,725.63
2017-10-04T12:17:43.410Z,635.63
2017-10-04T12:18:43.374Z,590.63
2017-10-04T12:19:43.354Z,523.13
2017-10-04T12:21:04.422Z,450.00
2017-10-04T12:21:43.384Z,348.75
2017-10-04T12:22:43.339Z,303.75
2017-10-04T12:23:43.318Z,298.13
2017-10-04T12:24:43.302Z,286.88
2017-10-04T12:25:43.275Z,270.00
2017-10-04T12:27:04.271Z,236.25
2017-10-04T12:27:43.271Z,213.75
2017-10-04T12:28:43.296Z,202.50
2017-10-04T12:29:43.226Z,208.13
2017-10-04T12:30:43.233Z,230.63
2017-10-04T12:31:43.184Z,343.13
2017-10-04T12:33:04.183Z,517.50
2017-10-04T12:33:43.153Z,590.63
2017-10-04T12:34:43.133Z,540.00
2017-10-04T12:35:43.172Z,455.63
2017-10-04T12:36:43.094Z,433.13
2017-10-04T12:37:43.137Z,528.75
2017-10-04T12:39:04.083Z,573.75
2017-10-04T12:39:43.064Z,607.50
2017-10-04T12:40:43.055Z,900.00
2017-10-04T12:41:43.032Z,950.63
2017-10-04T12:42:43.009Z,798.75
2017-10-04T12:43:43.015Z,658.13
2017-10-04T12:45:03.979Z,630.00
2017-10-04T12:45:42.978Z,714.38
2017-10-04T12:46:42.978Z,624.38
2017-10-04T12:47:42.929Z,500.63
2017-10-04T12:48:42.918Z,478.13
2017-10-04T12:49:42.912Z,466.88